createdAt,value
2018-06-17T00:00:56.137Z,3.90
2018-06-17T00:03:25.415Z,3.80
2018-06-17T00:05:54.620Z,3.57
2018-06-17T00:08:23.814Z,3.70
2018-06-17T00:10:52.997Z,3.33
2018-06-17T00:13:22.388Z,2.90
2018-06-17T00:15:51.495Z,3.30
2018-06-17T00:18:20.737Z,3.50
2018-06-17T00:20:49.893Z,3.13
2018-06-17T00:23:19.728Z,3.33
2018-06-17T00:25:48.916Z,3.50
2018-06-17T00:28:18.121Z,3.72
2018-06-17T00:30:47.240Z,2.83
2018-06-17T00:33:16.396Z,3.30
2018-06-17T00:35:45.692Z,3.50
2018-06-17T00:38:14.788Z,4.22
2018-06-17T00:40:43.945Z,3.10
2018-06-17T00:43:13.393Z,3.20
2018-06-17T00:45:42.505Z,3.50
2018-06-17T00:48:12.429Z,3.62
2018-06-17T00:50:41.556Z,3.60
2018-06-17T00:53:10.677Z,3.50
2018-06-17T00:55:39.797Z,3.47
2018-06-17T00:58:08.994Z,3.70
2018-06-17T01:00:38.377Z,3.80
2018-06-17T01:03:07.456Z,3.63
2018-06-17T01:05:36.640Z,4.10
2018-06-17T01:08:06.186Z,4.10
2018-06-17T01:10:35.294Z,4.73
2018-06-17T01:13:04.356Z,3.80
2018-06-17T01:15:33.483Z,4.40
2018-06-17T01:18:02.648Z,3.90
2018-06-17T01:20:31.830Z,4.30
2018-06-17T01:23:00.978Z,4.30
2018-06-17T01:25:30.147Z,3.63
2018-06-17T01:27:59.316Z,3.70
2018-06-17T01:30:29.664Z,3.83
2018-06-17T01:32:58.762Z,4.00
2018-06-17T01:35:27.953Z,3.97
2018-06-17T01:37:57.256Z,3.90
2018-06-17T01:40:26.392Z,3.77
2018-06-17T01:42:55.591Z,3.97
2018-06-17T01:45:24.743Z,3.85
2018-06-17T01:47:53.944Z,4.60
2018-06-17T01:50:23.074Z,3.77
2018-06-17T01:52:52.244Z,3.58
2018-06-17T01:55:21.329Z,4.22
2018-06-17T01:57:50.626Z,4.10
2018-06-17T02:00:19.781Z,4.43
2018-06-17T02:02:48.939Z,4.43
2018-06-17T02:05:23.143Z,4.37
2018-06-17T02:07:57.672Z,4.47
2018-06-17T02:10:32.077Z,4.00
2018-06-17T02:13:01.266Z,4.40
2018-06-17T02:15:30.480Z,3.90
2018-06-17T02:17:59.664Z,4.00
2018-06-17T02:20:28.774Z,4.93
2018-06-17T02:22:57.983Z,3.60
2018-06-17T02:25:27.140Z,4.27
2018-06-17T02:27:56.409Z,4.77
2018-06-17T02:30:25.535Z,4.60
2018-06-17T02:32:54.732Z,4.30
2018-06-17T02:35:23.856Z,5.10
2018-06-17T02:37:53.019Z,4.60
2018-06-17T02:40:22.154Z,4.60
2018-06-17T02:42:51.249Z,4.40
2018-06-17T02:45:25.573Z,4.60
2018-06-17T02:47:59.955Z,4.90
2018-06-17T02:50:34.509Z,4.80
2018-06-17T02:53:08.829Z,5.20
2018-06-17T02:55:37.937Z,5.05
2018-06-17T02:58:07.110Z,5.00
2018-06-17T03:00:36.241Z,5.60
2018-06-17T03:03:05.983Z,4.60
2018-06-17T03:05:35.226Z,5.20
2018-06-17T03:08:04.409Z,5.60
2018-06-17T03:10:33.942Z,4.93
2018-06-17T03:13:04.340Z,4.93
2018-06-17T03:15:33.643Z,4.93
2018-06-17T03:18:02.782Z,5.20
2018-06-17T03:20:32.984Z,5.10
2018-06-17T03:23:02.166Z,5.00
2018-06-17T03:25:36.713Z,5.00
2018-06-17T03:30:15.786Z,4.63
2018-06-17T03:32:50.269Z,5.23
2018-06-17T03:35:24.607Z,4.70
2018-06-17T03:37:53.802Z,5.40
2018-06-17T03:40:23.054Z,5.45
2018-06-17T03:42:52.868Z,5.10
2018-06-17T03:45:22.018Z,5.20
2018-06-17T03:47:51.077Z,5.20
2018-06-17T03:50:20.252Z,5.33
2018-06-17T03:52:49.621Z,5.30
2018-06-17T03:55:18.876Z,5.08
2018-06-17T03:57:48.027Z,4.70
2018-06-17T04:00:17.672Z,5.03
2018-06-17T04:02:46.779Z,5.00
2018-06-17T04:05:21.123Z,4.90
2018-06-17T04:07:50.182Z,5.20
2018-06-17T04:10:19.475Z,5.53
2018-06-17T04:12:48.517Z,5.20
2018-06-17T04:15:17.662Z,6.12
2018-06-17T04:17:46.880Z,5.20
2018-06-17T04:20:16.114Z,5.30
2018-06-17T04:22:45.324Z,4.77
2018-06-17T04:25:14.478Z,4.17
2018-06-17T04:27:43.698Z,5.17
2018-06-17T04:30:13.434Z,5.13
2018-06-17T04:32:42.583Z,5.00
2018-06-17T04:35:11.779Z,5.12
2018-06-17T04:37:41.056Z,5.33
2018-06-17T04:40:10.202Z,5.90
2018-06-17T04:42:39.305Z,5.17
2018-06-17T04:45:08.469Z,5.10
2018-06-17T04:47:37.737Z,5.23
2018-06-17T04:50:06.905Z,5.07
2018-06-17T04:52:36.142Z,5.53
2018-06-17T04:55:05.347Z,4.83
2018-06-17T04:57:34.542Z,4.70
2018-06-17T05:00:03.740Z,4.90
2018-06-17T05:02:32.822Z,4.90
2018-06-17T05:05:02.302Z,5.10
2018-06-17T05:07:31.558Z,4.07
2018-06-17T05:10:00.757Z,5.00
2018-06-17T05:12:29.867Z,4.63
2018-06-17T05:14:59.177Z,5.10
2018-06-17T05:17:28.940Z,4.90
2018-06-17T05:19:58.134Z,4.50
2018-06-17T05:22:27.266Z,5.47
2018-06-17T05:24:56.415Z,4.50
2018-06-17T05:27:25.615Z,4.20
2018-06-17T05:29:54.750Z,4.03
2018-06-17T05:32:23.849Z,4.83
2018-06-17T05:34:53.020Z,5.07
2018-06-17T05:37:22.200Z,4.63
2018-06-17T05:39:51.380Z,4.50
2018-06-17T05:42:20.467Z,4.80
2018-06-17T05:44:49.592Z,4.73
2018-06-17T05:47:18.711Z,4.70
2018-06-17T05:49:47.968Z,5.17
2018-06-17T05:52:17.102Z,5.00
2018-06-17T05:54:46.483Z,5.20
2018-06-17T05:57:15.746Z,4.30
2018-06-17T05:59:44.817Z,4.50
2018-06-17T06:02:14.731Z,4.30
2018-06-17T06:04:44.602Z,4.23
2018-06-17T06:07:13.809Z,4.07
2018-06-17T06:09:42.867Z,4.13
2018-06-17T06:12:12.072Z,3.97
2018-06-17T06:14:41.162Z,3.60
2018-06-17T06:17:10.789Z,4.15
2018-06-17T06:19:39.875Z,3.93
2018-06-17T06:22:09.087Z,4.50
2018-06-17T06:24:38.218Z,3.87
2018-06-17T06:27:07.368Z,4.20
2018-06-17T06:29:36.614Z,3.90
2018-06-17T06:32:05.677Z,4.40
2018-06-17T06:34:34.796Z,4.40
2018-06-17T06:37:04.053Z,3.60
2018-06-17T06:39:33.197Z,3.50
2018-06-17T06:42:02.409Z,3.80
2018-06-17T06:44:31.519Z,4.23
2018-06-17T06:47:00.669Z,4.00
2018-06-17T06:49:29.858Z,3.63
2018-06-17T06:51:59.337Z,3.73
2018-06-17T06:54:28.949Z,3.83
2018-06-17T06:56:58.263Z,3.57
2018-06-17T06:59:27.580Z,3.63
2018-06-17T07:02:07.931Z,3.87
2018-06-17T07:04:48.427Z,3.90
2018-06-17T07:07:28.878Z,3.70
2018-06-17T07:10:09.822Z,3.50
2018-06-17T07:12:39.008Z,3.67
2018-06-17T07:15:08.091Z,3.40
2018-06-17T07:17:48.405Z,3.03
2018-06-17T07:20:17.563Z,3.58
2018-06-17T07:22:46.692Z,3.50
2018-06-17T07:27:31.287Z,3.22
2018-06-17T07:30:00.371Z,3.00
2018-06-17T07:32:29.646Z,3.40
2018-06-17T07:34:58.978Z,2.73
2018-06-17T07:37:28.249Z,3.10
2018-06-17T07:40:08.185Z,2.90
2018-06-17T07:42:37.280Z,2.40
2018-06-17T07:45:06.452Z,2.67
2018-06-17T07:47:35.888Z,2.67
2018-06-17T07:50:17.153Z,2.10
2018-06-17T07:52:57.524Z,2.37
2018-06-17T07:55:26.621Z,2.40
2018-06-17T07:57:55.906Z,2.13
2018-06-17T08:00:25.108Z,1.80
2018-06-17T08:02:54.281Z,1.80
2018-06-17T08:05:23.387Z,2.10
2018-06-17T08:07:52.900Z,2.07
2018-06-17T08:10:22.002Z,2.30
2018-06-17T08:12:51.184Z,2.00
2018-06-17T08:15:20.393Z,1.90
2018-06-17T08:17:49.581Z,2.20
2018-06-17T08:20:18.855Z,2.30
2018-06-17T08:22:47.893Z,2.20
2018-06-17T08:25:17.079Z,2.58
2018-06-17T08:27:46.278Z,2.80
2018-06-17T08:30:16.411Z,2.33
2018-06-17T08:32:45.515Z,5.13
2018-06-17T08:35:14.704Z,2.15
2018-06-17T08:37:43.777Z,2.50
2018-06-17T08:40:12.874Z,2.77
2018-06-17T08:42:42.094Z,2.53
2018-06-17T08:45:11.286Z,2.37
2018-06-17T08:47:40.873Z,2.20
2018-06-17T08:50:10.009Z,2.40
2018-06-17T08:52:39.165Z,2.00
2018-06-17T08:55:08.390Z,2.70
2018-06-17T08:57:37.972Z,2.33
2018-06-17T09:00:07.190Z,2.10
2018-06-17T09:02:36.297Z,2.30
2018-06-17T09:05:05.377Z,2.17
2018-06-17T09:07:34.579Z,2.50
2018-06-17T09:10:03.778Z,2.40
2018-06-17T09:12:32.975Z,2.13
2018-06-17T09:15:02.140Z,2.13
2018-06-17T09:17:31.629Z,2.53
2018-06-17T09:20:00.788Z,2.10
2018-06-17T09:22:29.977Z,2.60
2018-06-17T09:24:59.143Z,2.50
2018-06-17T09:27:28.309Z,2.60
2018-06-17T09:29:57.422Z,2.60
2018-06-17T09:32:26.596Z,2.70
2018-06-17T09:34:55.747Z,2.50
2018-06-17T09:37:25.035Z,2.23
2018-06-17T09:39:54.410Z,2.20
2018-06-17T09:42:23.466Z,2.27
2018-06-17T09:44:52.606Z,2.50
2018-06-17T09:47:21.817Z,2.10
2018-06-17T09:49:51.011Z,3.15
2018-06-17T09:52:20.085Z,2.37
2018-06-17T09:54:49.230Z,2.17
2018-06-17T09:57:18.320Z,2.77
2018-06-17T09:59:47.424Z,2.47
2018-06-17T10:02:16.572Z,2.30
2018-06-17T10:04:45.655Z,2.80
2018-06-17T10:07:14.804Z,2.70
2018-06-17T10:11:00.306Z,2.43
2018-06-17T10:13:33.286Z,2.73
2018-06-17T10:16:02.533Z,2.90
2018-06-17T10:18:32.095Z,3.03
2018-06-17T10:21:01.280Z,2.80
2018-06-17T10:23:30.528Z,2.60
2018-06-17T10:25:59.687Z,3.40
2018-06-17T10:28:30.210Z,2.70
2018-06-17T10:31:00.876Z,3.85
2018-06-17T10:33:30.369Z,2.77
2018-06-17T10:35:59.495Z,2.93
2018-06-17T10:38:28.674Z,2.63
2018-06-17T10:40:57.995Z,2.53
2018-06-17T10:43:31.339Z,2.80
2018-06-17T10:46:00.485Z,2.77
2018-06-17T10:48:29.622Z,3.57
2018-06-17T10:50:59.167Z,3.60
2018-06-17T10:53:28.334Z,3.13
2018-06-17T10:55:57.537Z,2.93
2018-06-17T10:58:26.601Z,3.37
2018-06-17T11:00:55.720Z,3.10
2018-06-17T11:03:24.985Z,3.30
2018-06-17T11:05:54.134Z,2.90
2018-06-17T11:08:23.235Z,3.25
2018-06-17T11:10:52.628Z,3.13
2018-06-17T11:13:21.803Z,3.00
2018-06-17T11:15:51.089Z,3.00
2018-06-17T11:18:20.212Z,3.20
2018-06-17T11:20:50.222Z,3.33
2018-06-17T11:23:19.401Z,3.70
2018-06-17T11:25:48.513Z,3.30
2018-06-17T11:28:17.631Z,3.77
2018-06-17T11:30:46.866Z,3.30
2018-06-17T11:33:16.084Z,3.60
2018-06-17T11:35:45.227Z,3.10
2018-06-17T11:38:14.406Z,3.42
2018-06-17T11:40:43.739Z,2.90
2018-06-17T11:43:13.236Z,3.13
2018-06-17T11:45:42.422Z,3.10
2018-06-17T11:48:11.514Z,2.80
2018-06-17T11:50:40.610Z,3.13
2018-06-17T11:53:09.903Z,3.33
2018-06-17T11:55:39.042Z,3.47
2018-06-17T11:58:08.269Z,3.60
2018-06-17T12:00:37.408Z,2.87
2018-06-17T12:03:07.425Z,3.00
2018-06-17T12:05:36.731Z,3.43
2018-06-17T12:08:06.330Z,2.62
2018-06-17T12:10:35.893Z,3.17
2018-06-17T12:13:05.225Z,3.00
2018-06-17T12:15:35.146Z,3.13
2018-06-17T12:18:04.969Z,3.10
2018-06-17T12:20:34.201Z,3.27
2018-06-17T12:23:03.282Z,2.80
2018-06-17T12:25:33.286Z,2.80
2018-06-17T12:28:02.395Z,3.20
2018-06-17T12:30:31.578Z,2.97
2018-06-17T12:33:00.662Z,2.80
2018-06-17T12:35:29.864Z,3.20
2018-06-17T12:37:59.049Z,2.70
2018-06-17T12:40:28.635Z,3.33
2018-06-17T12:42:57.845Z,3.07
2018-06-17T12:45:26.965Z,3.50
2018-06-17T12:47:56.392Z,2.13
2018-06-17T12:50:26.428Z,2.50
2018-06-17T12:52:55.599Z,2.60
2018-06-17T12:55:24.767Z,2.47
2018-06-17T12:57:54.635Z,3.00
2018-06-17T13:00:23.766Z,2.52
2018-06-17T13:02:52.893Z,2.70
2018-06-17T13:05:22.001Z,2.37
2018-06-17T13:07:51.334Z,2.30
2018-06-17T13:10:20.426Z,2.62
2018-06-17T13:12:49.628Z,2.60
2018-06-17T13:15:18.706Z,2.60
2018-06-17T13:17:47.920Z,2.02
2018-06-17T13:20:17.148Z,2.42
2018-06-17T13:22:46.461Z,2.63
2018-06-17T13:25:15.910Z,2.72
2018-06-17T13:27:45.105Z,2.20
2018-06-17T13:30:14.363Z,2.47
2018-06-17T13:32:43.882Z,2.53
2018-06-17T13:35:13.091Z,2.37
2018-06-17T13:37:42.375Z,3.00
2018-06-17T13:40:12.763Z,3.15
2018-06-17T13:42:42.941Z,3.20
2018-06-17T13:45:11.978Z,2.90
2018-06-17T13:47:41.851Z,3.10
2018-06-17T13:50:11.004Z,3.55
2018-06-17T13:52:40.135Z,3.20
2018-06-17T13:55:10.728Z,3.20
2018-06-17T13:57:40.157Z,3.20
2018-06-17T14:00:10.033Z,3.35
2018-06-17T14:02:39.524Z,2.97
2018-06-17T14:05:08.650Z,3.30
2018-06-17T14:07:37.744Z,2.83
2018-06-17T14:10:06.920Z,2.90
2018-06-17T14:12:36.072Z,3.00
2018-06-17T14:15:07.109Z,3.30
2018-06-17T14:17:36.347Z,3.07
2018-06-17T14:20:06.942Z,4.50
2018-06-17T14:22:36.169Z,3.20
2018-06-17T14:25:05.829Z,2.80
2018-06-17T14:27:37.145Z,3.40
2018-06-17T14:30:09.094Z,2.87
2018-06-17T14:32:40.275Z,2.95
2018-06-17T14:35:09.387Z,3.07
2018-06-17T14:37:38.663Z,3.13
2018-06-17T14:40:07.845Z,2.90
2018-06-17T14:42:42.959Z,3.10
2018-06-17T14:45:17.342Z,2.85
2018-06-17T14:47:51.749Z,3.33
2018-06-17T14:50:26.082Z,3.00
2018-06-17T14:53:00.624Z,3.07
2018-06-17T14:55:29.792Z,3.10
2018-06-17T14:57:59.062Z,3.17
2018-06-17T15:00:28.574Z,3.30
2018-06-17T15:02:57.908Z,2.90
2018-06-17T15:05:27.012Z,3.20
2018-06-17T15:07:56.130Z,3.13
2018-06-17T15:10:27.165Z,3.40
2018-06-17T15:12:56.333Z,3.07
2018-06-17T15:15:25.515Z,3.27
2018-06-17T15:17:54.948Z,3.63
2018-06-17T15:20:24.120Z,3.17
2018-06-17T15:22:53.734Z,3.30
2018-06-17T15:25:23.343Z,3.00
2018-06-17T15:27:53.891Z,3.37
2018-06-17T15:30:23.173Z,3.40
2018-06-17T15:32:57.697Z,4.03
2018-06-17T15:35:32.365Z,3.07
2018-06-17T15:38:06.786Z,3.40
2018-06-17T15:40:41.155Z,3.60
2018-06-17T15:43:18.812Z,4.03
2018-06-17T15:45:51.303Z,3.30
2018-06-17T15:48:21.886Z,3.23
2018-06-17T15:50:53.325Z,3.20
2018-06-17T15:53:25.501Z,3.30
2018-06-17T15:55:55.122Z,3.80
2018-06-17T15:58:28.862Z,4.03
2018-06-17T16:00:58.392Z,3.73
2018-06-17T16:03:28.042Z,3.30
2018-06-17T16:05:57.580Z,2.97
2018-06-17T16:08:26.905Z,3.07
2018-06-17T16:10:56.054Z,2.97
2018-06-17T16:13:30.621Z,3.97
2018-06-17T16:16:05.369Z,2.97
2018-06-17T16:20:47.700Z,2.83
2018-06-17T16:23:17.001Z,2.97
2018-06-17T16:25:46.071Z,3.40
2018-06-17T16:28:15.436Z,3.10
2018-06-17T16:30:44.766Z,3.60
2018-06-17T16:33:13.936Z,3.00
2018-06-17T16:35:43.436Z,2.60
2018-06-17T16:38:12.788Z,3.37
2018-06-17T16:40:42.068Z,3.50
2018-06-17T16:43:11.233Z,3.35
2018-06-17T16:45:40.464Z,2.87
2018-06-17T16:48:09.567Z,3.50
2018-06-17T16:50:38.712Z,3.73
2018-06-17T16:53:13.545Z,2.90
2018-06-17T16:55:48.913Z,3.23
2018-06-17T16:58:23.459Z,2.80
2018-06-17T17:00:52.633Z,3.07
2018-06-17T17:03:21.844Z,3.15
2018-06-17T17:05:51.266Z,2.87
2018-06-17T17:08:20.538Z,3.07
2018-06-17T17:10:50.133Z,2.90
2018-06-17T17:13:19.199Z,3.10
2018-06-17T17:15:48.388Z,2.97
2018-06-17T17:18:17.613Z,3.17
2018-06-17T17:20:47.463Z,2.63
2018-06-17T17:23:16.724Z,3.00
2018-06-17T17:25:45.753Z,3.30
2018-06-17T17:28:14.813Z,2.60
2018-06-17T17:30:48.202Z,3.00
2018-06-17T17:33:22.389Z,2.90
2018-06-17T17:35:56.769Z,2.93
2018-06-17T17:38:32.879Z,2.63
2018-06-17T17:41:04.138Z,2.60
2018-06-17T17:43:33.235Z,2.60
2018-06-17T17:46:07.608Z,2.70
2018-06-17T17:48:36.760Z,2.33
2018-06-17T17:51:06.061Z,2.40
2018-06-17T17:53:35.307Z,2.43
2018-06-17T17:56:04.881Z,2.73
2018-06-17T17:58:34.057Z,2.80
2018-06-17T18:01:03.181Z,2.70
2018-06-17T18:03:32.312Z,2.80
2018-06-17T18:06:01.477Z,3.00
2018-06-17T18:08:30.834Z,3.00
2018-06-17T18:11:00.064Z,3.00
2018-06-17T18:13:29.266Z,3.50
2018-06-17T18:15:58.362Z,3.20
2018-06-17T18:18:27.461Z,3.37
2018-06-17T18:20:56.562Z,2.93
2018-06-17T18:23:25.684Z,2.10
2018-06-17T18:25:59.876Z,2.63
2018-06-17T18:28:34.306Z,2.53
2018-06-17T18:31:04.162Z,2.40
2018-06-17T18:33:38.359Z,2.50
2018-06-17T18:36:09.011Z,2.70
2018-06-17T18:38:39.508Z,2.60
2018-06-17T18:41:08.970Z,2.40
2018-06-17T18:43:38.585Z,3.20
2018-06-17T18:46:08.179Z,2.40
2018-06-17T18:48:37.435Z,2.50
2018-06-17T18:51:06.687Z,2.93
2018-06-17T18:53:35.984Z,2.40
2018-06-17T18:56:06.255Z,2.40
2018-06-17T18:58:35.542Z,2.40
2018-06-17T19:01:04.790Z,2.53
2018-06-17T19:03:34.118Z,3.30
2018-06-17T19:06:03.423Z,3.23
2018-06-17T19:08:37.769Z,2.67
2018-06-17T19:11:12.659Z,2.70
2018-06-17T19:13:47.494Z,2.43
2018-06-17T19:16:21.850Z,2.80
2018-06-17T19:18:51.120Z,2.40
2018-06-17T19:21:21.266Z,2.40
2018-06-17T19:23:50.518Z,2.30
2018-06-17T19:26:20.105Z,2.53
2018-06-17T19:28:49.224Z,2.40
2018-06-17T19:31:18.328Z,2.20
2018-06-17T19:33:47.827Z,2.50
2018-06-17T19:36:16.969Z,2.47
2018-06-17T19:38:46.462Z,1.90
2018-06-17T19:41:15.623Z,2.50
2018-06-17T19:43:44.856Z,2.40
2018-06-17T19:46:13.990Z,2.20
2018-06-17T19:48:43.154Z,2.73
2018-06-17T19:51:18.674Z,3.17
2018-06-17T19:53:53.083Z,2.73
2018-06-17T19:56:27.810Z,2.75
2018-06-17T19:59:02.194Z,2.73
2018-06-17T20:01:31.360Z,2.33
2018-06-17T20:04:00.426Z,2.87
2018-06-17T20:06:29.867Z,3.10
2018-06-17T20:08:58.867Z,2.67
2018-06-17T20:11:28.084Z,3.10
2018-06-17T20:13:57.300Z,2.47
2018-06-17T20:16:27.130Z,2.50
2018-06-17T20:18:56.286Z,2.90
2018-06-17T20:21:25.516Z,2.70
2018-06-17T20:23:54.668Z,2.37
2018-06-17T20:26:23.913Z,2.60
2018-06-17T20:28:53.427Z,2.60
2018-06-17T20:31:22.520Z,2.65
2018-06-17T20:33:56.921Z,2.80
2018-06-17T20:36:31.201Z,2.70
2018-06-17T20:39:06.197Z,2.70
2018-06-17T20:41:41.010Z,2.90
2018-06-17T20:44:11.353Z,3.08
2018-06-17T20:46:40.639Z,2.40
2018-06-17T20:49:10.223Z,2.92
2018-06-17T20:51:40.119Z,2.90
2018-06-17T20:54:09.666Z,2.80
2018-06-17T20:56:39.747Z,2.87
2018-06-17T20:59:09.213Z,3.37
2018-06-17T21:01:38.543Z,2.63
2018-06-17T21:04:07.689Z,3.07
2018-06-17T21:06:36.868Z,2.77
2018-06-17T21:09:08.645Z,2.60
2018-06-17T21:11:37.775Z,2.70
2018-06-17T21:14:07.080Z,2.87
2018-06-17T21:16:36.372Z,2.55
2018-06-17T21:19:11.309Z,3.10
2018-06-17T21:21:45.815Z,2.80
2018-06-17T21:24:20.262Z,2.67
2018-06-17T21:26:55.435Z,2.60
2018-06-17T21:29:24.717Z,3.00
2018-06-17T21:31:53.886Z,2.77
2018-06-17T21:34:23.102Z,3.15
2018-06-17T21:36:52.330Z,2.90
2018-06-17T21:39:21.548Z,3.00
2018-06-17T21:41:50.722Z,2.70
2018-06-17T21:44:19.930Z,2.87
2018-06-17T21:46:49.093Z,3.40
2018-06-17T21:49:18.324Z,3.10
2018-06-17T21:51:47.466Z,3.03
2018-06-17T21:54:16.613Z,3.00
2018-06-17T21:56:45.835Z,3.10
2018-06-17T21:59:14.980Z,2.98
2018-06-17T22:01:44.222Z,3.50
2018-06-17T22:04:18.591Z,3.00
2018-06-17T22:06:47.802Z,3.20
2018-06-17T22:09:22.249Z,3.00
2018-06-17T22:11:57.010Z,2.80
2018-06-17T22:14:31.397Z,3.10
2018-06-17T22:17:06.216Z,2.80
2018-06-17T22:19:35.391Z,2.90
2018-06-17T22:22:04.692Z,2.80
2018-06-17T22:24:33.954Z,3.27
2018-06-17T22:27:03.229Z,3.00
2018-06-17T22:29:32.339Z,3.00
2018-06-17T22:32:01.642Z,3.00
2018-06-17T22:34:31.136Z,2.70
2018-06-17T22:37:00.319Z,2.93
2018-06-17T22:39:29.447Z,2.80
2018-06-17T22:41:58.573Z,2.57
2018-06-17T22:44:27.719Z,3.00
2018-06-17T22:46:56.865Z,3.30
2018-06-17T22:49:26.447Z,3.07
2018-06-17T22:51:55.669Z,2.60
2018-06-17T22:54:35.947Z,3.30
2018-06-17T22:57:10.420Z,3.30
2018-06-17T22:59:44.840Z,2.77
2018-06-17T23:02:19.218Z,2.90
2018-06-17T23:04:53.534Z,2.80
2018-06-17T23:07:27.899Z,3.20
2018-06-17T23:09:57.040Z,3.50
2018-06-17T23:12:26.274Z,2.93
2018-06-17T23:14:55.445Z,2.70
2018-06-17T23:17:24.738Z,3.50
2018-06-17T23:19:53.822Z,2.93
2018-06-17T23:22:23.054Z,2.90
2018-06-17T23:24:52.359Z,2.93
2018-06-17T23:27:21.550Z,2.70
2018-06-17T23:29:51.001Z,2.87
2018-06-17T23:32:20.053Z,3.20
2018-06-17T23:34:49.165Z,3.10
2018-06-17T23:37:18.348Z,2.67
2018-06-17T23:39:47.461Z,2.87
2018-06-17T23:42:16.537Z,2.95
2018-06-17T23:44:45.727Z,2.70
2018-06-17T23:47:19.939Z,2.75
2018-06-17T23:49:54.231Z,3.00
2018-06-17T23:52:28.609Z,3.08
2018-06-17T23:55:02.918Z,2.80
2018-06-17T23:57:32.110Z,2.70
